Time;durP1;ratioP1;P1;durP2;ratioP2;P2;SDS_P1;SDS_P2;PMS_P1;PMS_P2;Temp;Humidity;BMP_temperature;BMP_pressure;BME280_temperature;BME280_humidity;BME280_pressure;Samples;Min_cycle;Max_cycle;Signal;HPM_P1;HPM_P2
2021/05/18 00:02:04;;;;;;;2.97;1.05;;;23.80;42.20;;;;;;5069427;28;20197;-45
2021/05/18 00:04:30;;;;;;;1.25;1.10;;;23.80;42.10;;;;;;5068672;28;20205;-51
2021/05/18 00:06:56;;;;;;;1.48;1.05;;;23.80;42.00;;;;;;5069927;28;20228;-49
2021/05/18 00:12:07;;;;;;;1.40;1.00;;;23.80;41.80;;;;;;5070201;28;20280;-53
2021/05/18 00:14:35;;;;;;;1.13;0.98;;;23.80;42.00;;;;;;5066342;28;20201;-43
2021/05/18 00:17:01;;;;;;;1.20;1.10;;;23.80;42.10;;;;;;5069651;28;20711;-51
2021/05/18 00:19:27;;;;;;;1.35;1.08;;;23.80;42.20;;;;;;5068372;28;20227;-45
2021/05/18 00:21:53;;;;;;;1.42;1.27;;;23.80;42.20;;;;;;5068468;28;20213;-45
2021/05/18 00:24:19;;;;;;;1.30;1.20;;;23.80;42.10;;;;;;5069534;28;20201;-46
2021/05/18 00:26:45;;;;;;;1.65;1.02;;;23.80;42.00;;;;;;5070253;28;20355;-55
2021/05/18 00:29:11;;;;;;;1.20;1.10;;;23.80;42.20;;;;;;5070041;28;20676;-46
2021/05/18 00:31:37;;;;;;;1.13;1.02;;;23.80;42.00;;;;;;5070209;28;20204;-56
2021/05/18 00:34:03;;;;;;;1.02;0.90;;;23.80;42.00;;;;;;5069125;28;20202;-50
2021/05/18 00:36:29;;;;;;;1.33;1.00;;;23.80;42.00;;;;;;5068902;28;21023;-47
2021/05/18 00:38:55;;;;;;;1.20;1.00;;;23.80;41.90;;;;;;5070201;28;20202;-48
2021/05/18 00:41:21;;;;;;;1.13;1.02;;;23.80;41.60;;;;;;5068885;28;20683;-45
2021/05/18 00:43:47;;;;;;;1.42;1.30;;;23.80;41.80;;;;;;5062424;28;20193;-48
2021/05/18 00:46:13;;;;;;;1.42;1.10;;;23.80;41.80;;;;;;5067041;28;20641;-42
2021/05/18 00:48:39;;;;;;;0.90;0.90;;;23.80;41.60;;;;;;5069947;28;20197;-53
2021/05/18 00:51:05;;;;;;;1.77;0.98;;;23.80;41.50;;;;;;5069010;28;20251;-47
2021/05/18 00:53:31;;;;;;;1.48;1.10;;;23.80;41.50;;;;;;5071134;28;20676;-55
2021/05/18 00:55:59;;;;;;;1.08;0.98;;;23.80;41.50;;;;;;5071649;28;20205;-50
2021/05/18 00:58:29;;;;;;;1.23;1.13;;;23.80;41.50;;;;;;5069997;28;20235;-54
2021/05/18 01:00:55;;;;;;;1.30;0.98;;;23.80;41.40;;;;;;5069129;28;20233;-48
2021/05/18 01:03:21;;;;;;;1.30;0.93;;;23.80;41.50;;;;;;5069600;28;20471;-50
2021/05/18 01:08:31;;;;;;;1.33;0.90;;;23.80;41.40;;;;;;5072142;28;20629;-45
2021/05/18 01:10:57;;;;;;;2.20;1.00;;;23.80;41.50;;;;;;5072276;28;20204;-44
2021/05/18 01:13:24;;;;;;;2.45;1.15;;;23.80;42.10;;;;;;5073504;28;20204;-46
2021/05/18 01:15:50;;;;;;;1.75;1.13;;;23.80;42.20;;;;;;5073651;28;20212;-44
2021/05/18 01:18:16;;;;;;;1.90;1.10;;;23.80;42.60;;;;;;5073832;28;20229;-51
2021/05/18 01:20:42;;;;;;;1.83;1.13;;;23.80;42.40;;;;;;5073554;28;20224;-52
2021/05/18 01:23:08;;;;;;;1.70;1.58;;;23.80;42.60;;;;;;5073437;28;20197;-44
2021/05/18 01:25:34;;;;;;;1.52;1.05;;;23.80;42.50;;;;;;5073194;28;20197;-52
2021/05/18 01:28:00;;;;;;;3.20;0.95;;;23.80;42.70;;;;;;5074097;28;20253;-48
2021/05/18 01:30:26;;;;;;;1.20;0.93;;;23.80;42.70;;;;;;5073154;28;20197;-46
2021/05/18 01:32:52;;;;;;;1.45;1.10;;;23.80;42.40;;;;;;5073256;28;20534;-45
2021/05/18 01:35:18;;;;;;;1.85;0.93;;;23.80;42.00;;;;;;5078382;28;20202;-53
2021/05/18 01:37:44;;;;;;;1.50;1.27;;;23.80;42.40;;;;;;5072780;28;20225;-49
2021/05/18 01:40:26;;;;;;;1.88;0.93;;;23.80;42.40;;;;;;5073108;28;20225;-46
2021/05/18 01:42:53;;;;;;;1.73;1.35;;;23.80;42.70;;;;;;5072508;28;20233;-45
2021/05/18 01:45:19;;;;;;;1.90;0.98;;;23.80;42.70;;;;;;5072990;28;20212;-53
2021/05/18 01:47:50;;;;;;;3.30;1.00;;;23.80;42.50;;;;;;5073646;28;20221;-51
2021/05/18 01:50:16;;;;;;;1.52;0.90;;;23.80;42.70;;;;;;5072479;28;20576;-45
2021/05/18 01:52:42;;;;;;;1.55;1.00;;;23.80;42.70;;;;;;5073731;28;20205;-47
2021/05/18 01:55:08;;;;;;;2.22;1.30;;;23.80;42.70;;;;;;5071665;28;20201;-53
2021/05/18 01:57:34;;;;;;;3.33;1.20;;;23.80;42.60;;;;;;5071731;28;20323;-50
2021/05/18 02:00:00;;;;;;;1.35;1.20;;;23.80;42.60;;;;;;5073486;28;20208;-46
2021/05/18 02:02:26;;;;;;;1.33;1.20;;;23.80;42.20;;;;;;5072429;28;20205;-48
2021/05/18 02:04:53;;;;;;;1.17;0.90;;;23.80;42.10;;;;;;5071949;28;20478;-42
2021/05/18 02:07:19;;;;;;;2.45;1.25;;;23.80;42.00;;;;;;5070904;28;20705;-47
2021/05/18 02:09:45;;;;;;;1.50;1.05;;;23.80;41.90;;;;;;5072595;28;20208;-45
2021/05/18 02:12:11;;;;;;;2.90;1.00;;;23.80;42.00;;;;;;5073271;28;20224;-48
2021/05/18 02:14:38;;;;;;;1.02;0.93;;;23.80;41.70;;;;;;5071750;28;20259;-44
2021/05/18 02:17:07;;;;;;;1.83;1.40;;;23.80;41.50;;;;;;5071078;28;20235;-46
2021/05/18 02:19:41;;;;;;;1.25;1.00;;;23.80;41.30;;;;;;5072003;28;20221;-47
2021/05/18 02:22:21;;;;;;;2.90;1.02;;;23.80;41.30;;;;;;5060567;28;20291;-41
2021/05/18 02:25:00;;;;;;;1.98;1.10;;;23.80;41.40;;;;;;5071747;28;20219;-42
2021/05/18 02:27:27;;;;;;;1.23;1.10;;;23.80;41.30;;;;;;5070363;28;20224;-45
2021/05/18 02:29:53;;;;;;;1.45;1.10;;;23.80;41.30;;;;;;5070273;28;20678;-45
2021/05/18 02:32:19;;;;;;;1.77;1.08;;;23.80;41.30;;;;;;5072131;28;20254;-49
2021/05/18 02:34:45;;;;;;;1.00;0.85;;;23.80;41.30;;;;;;5071326;28;20209;-46
2021/05/18 02:37:11;;;;;;;1.77;0.95;;;23.80;41.30;;;;;;5071287;28;20661;-47
2021/05/18 02:39:37;;;;;;;1.52;1.10;;;23.80;41.30;;;;;;5072353;28;20217;-44
2021/05/18 02:42:03;;;;;;;1.67;0.80;;;23.80;41.40;;;;;;5069736;28;20561;-44
2021/05/18 02:44:33;;;;;;;1.20;1.05;;;23.80;41.50;;;;;;5072241;28;20193;-48
2021/05/18 02:49:43;;;;;;;3.38;0.90;;;23.80;41.60;;;;;;5069153;28;20269;-46
2021/05/18 02:52:09;;;;;;;1.73;1.00;;;23.80;41.80;;;;;;5070645;28;20197;-47
2021/05/18 02:54:35;;;;;;;1.38;1.00;;;23.80;41.80;;;;;;5071523;28;20569;-49
2021/05/18 02:57:05;;;;;;;0.98;0.85;;;23.80;41.90;;;;;;5070751;28;20229;-47
2021/05/18 02:59:31;;;;;;;1.65;1.08;;;23.80;42.00;;;;;;5071495;28;20239;-48
2021/05/18 03:01:58;;;;;;;1.92;0.93;;;23.80;42.10;;;;;;5072150;28;20574;-49
2021/05/18 03:04:24;;;;;;;1.80;1.20;;;23.80;42.10;;;;;;5070882;28;20687;-50
2021/05/18 03:06:50;;;;;;;2.45;1.00;;;23.80;42.10;;;;;;5072114;28;20224;-44
2021/05/18 03:09:16;;;;;;;1.17;1.15;;;23.80;42.30;;;;;;5070580;28;20208;-50
2021/05/18 03:11:42;;;;;;;1.10;1.00;;;23.70;42.20;;;;;;5071589;28;20554;-46
2021/05/18 03:14:08;;;;;;;1.20;1.10;;;23.80;42.40;;;;;;5065459;28;20212;-46
2021/05/18 03:16:34;;;;;;;2.55;1.25;;;23.70;42.30;;;;;;5058003;28;20237;-52
2021/05/18 03:19:01;;;;;;;1.48;1.20;;;23.70;42.40;;;;;;5071325;28;20650;-46
2021/05/18 03:21:27;;;;;;;0.88;0.85;;;23.70;42.30;;;;;;5071147;28;20205;-47
2021/05/18 03:23:53;;;;;;;1.85;1.10;;;23.80;42.30;;;;;;5071003;28;20205;-51
2021/05/18 03:26:19;;;;;;;1.15;0.98;;;23.80;42.30;;;;;;5070652;28;20251;-54
2021/05/18 03:28:47;;;;;;;1.45;1.02;;;23.80;42.10;;;;;;5070236;28;20228;-52
2021/05/18 03:36:37;;;;;;;0.82;0.82;;;23.80;41.90;;;;;;5052661;28;20232;-56
2021/05/18 03:39:03;;;;;;;1.77;1.02;;;23.80;41.80;;;;;;5071051;28;20197;-55
2021/05/18 03:41:32;;;;;;;0.95;0.85;;;23.80;41.90;;;;;;5071627;28;20223;-53
2021/05/18 03:44:02;;;;;;;2.38;1.00;;;23.80;41.60;;;;;;5069498;28;20567;-51
2021/05/18 03:52:24;;;;;;;1.70;0.90;;;23.80;41.50;;;;;;5009072;28;20566;-50
2021/05/18 03:55:03;;;;;;;1.65;0.93;;;23.80;41.40;;;;;;5053796;28;20209;-44
2021/05/18 04:03:03;;;;;;;1.80;0.85;;;23.80;41.40;;;;;;5070507;28;20224;-52
2021/05/18 04:19:13;;;;;;;2.58;0.80;;;23.80;41.50;;;;;;5069816;28;20196;-50
2021/05/18 04:21:49;;;;;;;0.88;0.88;;;23.80;41.70;;;;;;5071188;28;20208;-53
2021/05/18 04:24:35;;;;;;;0.80;0.77;;;23.80;41.80;;;;;;5065669;28;20204;-53
2021/05/18 04:41:03;;;;;;;0.80;0.80;;;23.80;41.70;;;;;;5050468;28;20212;-43
2021/05/18 04:49:38;;;;;;;1.27;0.90;;;23.70;41.90;;;;;;5071126;28;20188;-43
2021/05/18 04:52:06;;;;;;;0.80;0.80;;;23.80;42.00;;;;;;5069428;28;20213;-44
2021/05/18 05:00:08;;;;;;;1.23;1.00;;;23.80;41.50;;;;;;5070801;28;20276;-57
2021/05/18 05:08:13;;;;;;;2.03;1.10;;;23.80;41.30;;;;;;5068161;28;20254;-43
2021/05/18 05:16:08;;;;;;;1.65;1.00;;;23.80;41.10;;;;;;5065780;28;20266;-42
2021/05/18 05:18:34;;;;;;;1.08;1.00;;;23.80;41.00;;;;;;5068584;28;20221;-45
2021/05/18 05:21:00;;;;;;;1.08;1.00;;;23.80;40.90;;;;;;5083480;28;20283;-48
2021/05/18 05:23:26;;;;;;;0.90;0.90;;;23.80;40.90;;;;;;5069580;28;20205;-44
2021/05/18 05:25:52;;;;;;;0.93;0.90;;;23.80;40.90;;;;;;5069677;28;20220;-44
2021/05/18 05:28:18;;;;;;;1.50;1.13;;;23.80;41.60;;;;;;5068217;28;20202;-45
2021/05/18 05:30:44;;;;;;;1.00;0.90;;;23.80;41.00;;;;;;5070178;28;20205;-46
2021/05/18 05:33:10;;;;;;;2.88;1.20;;;23.80;41.80;;;;;;5067123;28;20212;-45
2021/05/18 05:35:36;;;;;;;1.65;1.13;;;23.80;42.60;;;;;;5068524;28;20569;-50
2021/05/18 05:38:02;;;;;;;3.38;1.20;;;23.80;42.70;;;;;;5068882;28;20371;-45
2021/05/18 05:40:28;;;;;;;2.38;1.50;;;23.80;43.90;;;;;;5068607;28;20258;-48
2021/05/18 05:42:54;;;;;;;4.32;1.52;;;23.80;44.30;;;;;;5068476;28;20665;-48
2021/05/18 05:45:20;;;;;;;2.88;1.55;;;23.80;44.40;;;;;;5068177;28;20221;-55
2021/05/18 05:47:46;;;;;;;4.35;1.20;;;23.70;44.30;;;;;;5070245;28;20653;-53
2021/05/18 05:50:12;;;;;;;4.47;1.40;;;23.70;44.10;;;;;;5063999;28;20209;-45
2021/05/18 05:52:38;;;;;;;3.30;1.33;;;23.80;45.30;;;;;;5069641;28;20653;-49
2021/05/18 05:55:04;;;;;;;2.53;1.33;;;23.80;44.90;;;;;;5067928;28;20221;-49
2021/05/18 05:57:30;;;;;;;7.90;1.92;;;23.80;45.80;;;;;;5068335;28;20591;-46
2021/05/18 05:59:56;;;;;;;10.40;2.25;;;23.80;47.80;;;;;;5065578;28;20201;-50
2021/05/18 06:02:22;;;;;;;10.27;2.13;;;23.80;47.50;;;;;;5067160;28;20238;-44
2021/05/18 06:04:48;;;;;;;11.60;2.33;;;23.70;48.90;;;;;;5067876;28;20602;-46
2021/05/18 06:07:14;;;;;;;10.77;2.15;;;23.70;50.10;;;;;;5067682;28;20262;-43
2021/05/18 06:09:40;;;;;;;7.78;2.63;;;23.60;51.00;;;;;;5067725;28;20266;-49
2021/05/18 06:12:17;;;;;;;9.25;2.33;;;23.60;52.00;;;;;;5071959;28;20204;-46
2021/05/18 06:14:48;;;;;;;6.03;2.45;;;23.60;52.00;;;;;;5070794;28;20653;-45
2021/05/18 06:42:19;;;;;;;0.80;0.80;;;20.10;42.60;;;;;;5071616;28;20199;-42
2021/05/18 06:47:31;;;;;;;1.10;1.00;;;21.90;41.20;;;;;;5067329;28;20198;-42
2021/05/18 06:50:09;;;;;;;1.30;0.77;;;22.30;41.40;;;;;;5066332;28;20200;-44
2021/05/18 06:52:35;;;;;;;0.83;0.70;;;22.50;41.60;;;;;;5071590;28;20255;-43
2021/05/18 06:55:01;;;;;;;1.37;0.80;;;22.70;41.80;;;;;;5069588;28;20220;-43
2021/05/18 06:57:29;;;;;;;3.17;1.10;;;22.80;41.70;;;;;;5057908;28;20620;-44
2021/05/18 07:00:08;;;;;;;2.30;0.97;;;22.90;41.40;;;;;;5071172;28;20292;-43
2021/05/18 07:02:34;;;;;;;2.07;1.00;;;23.00;41.60;;;;;;5071782;28;20208;-43
2021/05/18 07:05:00;;;;;;;2.43;0.80;;;23.00;41.60;;;;;;5068473;28;20216;-42
2021/05/18 07:07:29;;;;;;;3.00;0.90;;;23.10;41.70;;;;;;5069615;28;20723;-45
2021/05/18 07:09:55;;;;;;;2.47;1.13;;;23.10;41.80;;;;;;5071103;28;20602;-41
2021/05/18 07:12:21;;;;;;;1.75;0.93;;;23.10;41.80;;;;;;5071265;28;20200;-46
2021/05/18 07:14:47;;;;;;;0.75;0.75;;;23.20;41.80;;;;;;5077602;28;20216;-42
2021/05/18 07:17:13;;;;;;;1.10;0.98;;;23.10;41.60;;;;;;5080907;28;20259;-41
2021/05/18 07:19:39;;;;;;;0.95;0.80;;;23.20;41.50;;;;;;5070860;28;20225;-43
2021/05/18 07:22:07;;;;;;;0.80;0.80;;;23.20;41.60;;;;;;5071382;28;20554;-44
2021/05/18 07:24:33;;;;;;;1.17;1.00;;;23.30;41.50;;;;;;5070920;28;20225;-44
2021/05/18 07:26:59;;;;;;;1.40;0.80;;;23.30;42.00;;;;;;5070721;28;20205;-46
2021/05/18 07:29:25;;;;;;;2.03;0.90;;;23.30;41.90;;;;;;5071798;28;20340;-46
2021/05/18 07:31:51;;;;;;;1.73;0.70;;;23.30;42.10;;;;;;5061098;28;20214;-46
2021/05/18 07:34:17;;;;;;;2.25;1.23;;;23.30;41.60;;;;;;5051046;28;20640;-44
2021/05/18 07:36:43;;;;;;;0.90;0.80;;;23.30;41.50;;;;;;5052377;28;20248;-42
2021/05/18 07:39:09;;;;;;;0.70;0.70;;;23.30;41.20;;;;;;5071495;28;20216;-43
2021/05/18 07:41:35;;;;;;;1.00;0.85;;;23.30;41.10;;;;;;5071305;28;20197;-47
2021/05/18 07:44:01;;;;;;;0.73;0.70;;;23.30;41.10;;;;;;5071240;28;20209;-42
2021/05/18 07:46:27;;;;;;;0.93;0.80;;;23.30;41.20;;;;;;5071598;28;20683;-45
2021/05/18 07:59:13;;;;;;;1.17;0.70;;;23.30;40.80;;;;;;4974820;28;20584;-50
2021/05/18 08:05:45;;;;;;;1.05;0.80;;;23.40;40.50;;;;;;5057542;28;20586;-44
2021/05/18 08:08:11;;;;;;;1.38;1.00;;;23.40;40.10;;;;;;5071539;28;20204;-40
2021/05/18 08:10:45;;;;;;;1.35;1.00;;;23.40;40.10;;;;;;5070672;28;20197;-41
2021/05/18 08:13:11;;;;;;;2.50;0.90;;;23.40;40.00;;;;;;5060360;28;20201;-45
2021/05/18 08:15:50;;;;;;;1.65;0.80;;;23.40;40.00;;;;;;5070606;28;20216;-42
2021/05/18 08:18:28;;;;;;;2.40;0.80;;;23.40;40.00;;;;;;5069480;28;20248;-42
2021/05/18 08:21:21;;;;;;;3.00;0.77;;;23.40;39.90;;;;;;5068722;28;20232;-41
2021/05/18 10:25:16;;;;;;;4.93;1.42;;;23.50;41.30;;;;;;5068938;28;20260;-44
2021/05/18 10:27:44;;;;;;;2.33;1.00;;;23.50;41.30;;;;;;5064185;28;20263;-45
2021/05/18 10:35:04;;;;;;;1.08;0.82;;;23.50;41.30;;;;;;5071771;28;20204;-46
2021/05/18 10:40:13;;;;;;;3.13;0.98;;;23.50;41.30;;;;;;5071768;28;20293;-47
2021/05/18 10:42:39;;;;;;;2.55;1.02;;;23.50;41.20;;;;;;5070148;28;20342;-40
2021/05/18 10:45:05;;;;;;;2.55;0.95;;;23.50;41.30;;;;;;5071302;28;20657;-45
2021/05/18 10:47:31;;;;;;;3.03;1.00;;;23.50;41.30;;;;;;5070655;28;20209;-43
2021/05/18 10:49:57;;;;;;;1.10;1.00;;;23.50;41.20;;;;;;5070844;28;20294;-44
2021/05/18 10:52:23;;;;;;;2.05;1.08;;;23.50;41.10;;;;;;5066388;28;20193;-43
2021/05/18 10:54:49;;;;;;;1.15;1.10;;;23.50;41.10;;;;;;5069384;28;20229;-50
2021/05/18 10:57:15;;;;;;;1.05;0.95;;;23.50;41.00;;;;;;5067932;28;20641;-45
2021/05/18 10:59:41;;;;;;;1.25;0.88;;;23.50;40.90;;;;;;5070630;28;20363;-45
2021/05/18 11:02:07;;;;;;;1.33;0.90;;;23.50;40.90;;;;;;5069713;28;20223;-41
2021/05/18 11:04:33;;;;;;;1.10;1.00;;;23.50;40.90;;;;;;5069379;28;20338;-45
2021/05/18 11:06:59;;;;;;;1.02;0.93;;;23.60;41.00;;;;;;5067984;28;20302;-47
2021/05/18 11:09:25;;;;;;;1.90;1.00;;;23.50;41.00;;;;;;5065993;28;20206;-41
2021/05/18 11:11:51;;;;;;;1.60;0.90;;;23.50;41.70;;;;;;5064789;28;20201;-41
2021/05/18 11:14:17;;;;;;;0.88;0.88;;;23.50;40.90;;;;;;5069741;28;20224;-48
2021/05/18 11:16:43;;;;;;;0.80;0.80;;;23.50;40.90;;;;;;5070602;28;20201;-42
2021/05/18 11:19:09;;;;;;;3.65;2.22;;;23.60;41.00;;;;;;5070928;28;20208;-48
2021/05/18 11:21:38;;;;;;;23.58;10.90;;;23.60;41.20;;;;;;5070148;28;20200;-39
2021/05/18 11:24:03;;;;;;;107.20;66.75;;;23.80;41.60;;;;;;5070197;28;20271;-43
2021/05/18 11:26:29;;;;;;;112.35;77.22;;;23.90;42.10;;;;;;5069979;28;20205;-39
2021/05/18 11:28:55;;;;;;;125.88;88.95;;;23.90;42.30;;;;;;5066676;28;20253;-39
2021/05/18 11:31:22;;;;;;;98.95;74.03;;;23.90;42.80;;;;;;5067042;28;20270;-47
2021/05/18 11:33:48;;;;;;;105.57;71.07;;;23.90;42.80;;;;;;5068075;28;20326;-47
2021/05/18 11:36:15;;;;;;;100.75;68.45;;;24.00;42.90;;;;;;5070711;28;20551;-43
2021/05/18 11:38:41;;;;;;;96.63;70.03;;;24.00;42.90;;;;;;5070641;28;20228;-50
2021/05/18 11:41:07;;;;;;;103.03;71.40;;;24.00;42.90;;;;;;5068944;28;20205;-50
2021/05/18 11:43:35;;;;;;;101.95;71.40;;;24.00;42.90;;;;;;5069830;28;20290;-56
2021/05/18 11:46:01;;;;;;;100.90;74.40;;;24.00;42.90;;;;;;5070904;28;20196;-49
2021/05/18 11:48:27;;;;;;;99.60;72.50;;;24.00;42.90;;;;;;5063912;28;20806;-39
2021/05/18 11:50:53;;;;;;;103.60;75.15;;;24.00;42.90;;;;;;5070379;28;20205;-43
2021/05/18 11:53:19;;;;;;;102.72;75.32;;;24.00;43.00;;;;;;5068322;28;20572;-40
2021/05/18 11:55:45;;;;;;;102.43;71.47;;;24.00;42.90;;;;;;5069638;28;20208;-40
2021/05/18 11:58:11;;;;;;;100.75;73.40;;;24.00;42.90;;;;;;5069281;28;20719;-44
2021/05/18 12:00:37;;;;;;;107.38;71.50;;;24.00;42.90;;;;;;5068902;28;20201;-43
2021/05/18 12:03:03;;;;;;;106.72;76.35;;;24.00;43.00;;;;;;5063223;28;20584;-38
2021/05/18 12:05:29;;;;;;;101.10;72.88;;;24.00;43.00;;;;;;5053460;28;20213;-49
2021/05/18 12:07:55;;;;;;;103.55;74.45;;;24.00;43.00;;;;;;5069650;28;20201;-49
2021/05/18 12:10:21;;;;;;;107.57;76.10;;;24.10;43.30;;;;;;5069370;28;20197;-40
2021/05/18 12:12:47;;;;;;;101.90;73.72;;;24.10;43.60;;;;;;5065053;28;20229;-42
2021/05/18 12:15:13;;;;;;;104.20;75.28;;;24.00;43.40;;;;;;5068562;28;20582;-45
2021/05/18 12:17:39;;;;;;;17.48;14.25;;;24.00;43.40;;;;;;5068644;28;20220;-41
2021/05/18 12:20:05;;;;;;;3.15;2.10;;;22.00;34.40;;;;;;5068550;28;20201;-45
2021/05/18 12:22:31;;;;;;;2.85;2.65;;;19.30;37.10;;;;;;5070220;28;20708;-39
2021/05/18 12:24:57;;;;;;;3.58;3.20;;;20.10;37.80;;;;;;5068325;28;20216;-40
2021/05/18 12:27:23;;;;;;;5.03;2.60;;;21.20;36.70;;;;;;5067401;28;20205;-43
2021/05/18 12:29:49;;;;;;;3.10;2.80;;;21.90;36.20;;;;;;5071626;28;20295;-45
2021/05/18 12:32:15;;;;;;;3.60;2.00;;;22.30;36.50;;;;;;5070761;28;20258;-49
2021/05/18 12:34:41;;;;;;;3.33;2.10;;;22.70;36.90;;;;;;5067439;28;20215;-45
2021/05/18 12:37:07;;;;;;;2.60;2.40;;;22.90;37.10;;;;;;5067780;28;20658;-41
2021/05/18 12:39:33;;;;;;;4.28;2.47;;;23.10;37.30;;;;;;5067952;28;20216;-40
2021/05/18 12:42:00;;;;;;;5.18;2.20;;;23.40;37.50;;;;;;5066898;28;20209;-43
2021/05/18 12:44:26;;;;;;;5.25;2.35;;;23.50;37.60;;;;;;5067787;28;20628;-48
2021/05/18 12:46:52;;;;;;;3.45;2.00;;;23.60;37.70;;;;;;5065822;28;20240;-41
2021/05/18 12:49:18;;;;;;;4.30;2.00;;;23.70;37.80;;;;;;5065069;28;20205;-40
2021/05/18 12:51:44;;;;;;;3.33;1.95;;;23.80;37.90;;;;;;5068733;28;20208;-43
2021/05/18 12:54:10;;;;;;;2.90;2.20;;;23.90;38.00;;;;;;5068843;28;20217;-40
2021/05/18 12:56:36;;;;;;;3.13;2.45;;;23.90;38.00;;;;;;5070241;28;20550;-40
2021/05/18 12:59:02;;;;;;;2.78;2.10;;;23.90;38.30;;;;;;5070126;28;20225;-44
2021/05/18 13:01:28;;;;;;;2.88;2.35;;;23.90;38.40;;;;;;5068752;28;20219;-43
2021/05/18 13:03:54;;;;;;;2.65;1.85;;;24.00;38.60;;;;;;5067221;28;20223;-49
2021/05/18 13:06:20;;;;;;;3.97;2.28;;;23.80;37.90;;;;;;5071677;28;20202;-53
2021/05/18 13:08:46;;;;;;;3.00;1.75;;;23.60;37.80;;;;;;5074838;28;20230;-50
2021/05/18 13:11:17;;;;;;;4.38;1.58;;;23.60;38.30;;;;;;5073437;28;20201;-41
2021/05/18 13:13:43;;;;;;;2.88;1.75;;;23.50;38.60;;;;;;5072287;28;20393;-49
2021/05/18 13:16:09;;;;;;;3.80;1.70;;;23.50;38.90;;;;;;5074231;28;20657;-45
2021/05/18 13:18:35;;;;;;;2.10;1.42;;;23.50;39.10;;;;;;5065244;28;20233;-46
2021/05/18 13:21:01;;;;;;;2.97;1.92;;;23.50;39.20;;;;;;5073337;28;20219;-47
2021/05/18 13:23:32;;;;;;;3.83;1.58;;;23.50;39.40;;;;;;5072702;28;20233;-48
2021/05/18 13:28:42;;;;;;;2.88;1.90;;;23.50;39.50;;;;;;5073073;28;20228;-45
2021/05/18 13:31:08;;;;;;;3.17;1.90;;;23.50;39.60;;;;;;5073431;28;20197;-40
2021/05/18 13:33:34;;;;;;;3.00;1.80;;;23.50;39.70;;;;;;5072317;28;20296;-40
2021/05/18 13:36:00;;;;;;;3.53;1.60;;;23.60;39.80;;;;;;5073637;28;20197;-50
2021/05/18 13:38:26;;;;;;;3.42;2.00;;;23.50;39.70;;;;;;5072486;28;20221;-40
2021/05/18 13:40:52;;;;;;;3.90;2.00;;;23.60;39.90;;;;;;5073560;28;20208;-48
2021/05/18 13:43:18;;;;;;;2.75;1.83;;;23.60;40.00;;;;;;5072957;28;20712;-42
2021/05/18 13:45:44;;;;;;;4.97;1.98;;;23.60;40.00;;;;;;5072881;28;20196;-41
2021/05/18 13:48:10;;;;;;;4.07;2.00;;;23.60;40.10;;;;;;5073577;28;20258;-47
2021/05/18 13:50:38;;;;;;;2.25;1.70;;;23.60;40.20;;;;;;5068133;28;20204;-43
2021/05/18 13:53:04;;;;;;;2.35;1.70;;;23.60;40.10;;;;;;5061011;28;20217;-44
2021/05/18 13:55:30;;;;;;;2.88;2.03;;;23.60;40.20;;;;;;5066319;28;20292;-42
2021/05/18 13:57:56;;;;;;;2.47;1.58;;;23.60;40.40;;;;;;5064938;28;20691;-43
2021/05/18 14:00:22;;;;;;;4.13;1.98;;;23.60;40.40;;;;;;5061708;28;20201;-46
2021/05/18 14:02:49;;;;;;;3.92;2.53;;;23.60;40.50;;;;;;5071017;28;20849;-39
2021/05/18 14:05:15;;;;;;;3.83;1.80;;;23.60;40.60;;;;;;5070750;28;20273;-40
2021/05/18 14:07:53;;;;;;;2.35;1.55;;;23.60;40.80;;;;;;5056176;28;20533;-45
2021/05/18 14:10:19;;;;;;;3.47;2.13;;;23.60;40.60;;;;;;5072272;28;20564;-41
2021/05/18 14:12:45;;;;;;;2.00;1.80;;;23.60;40.60;;;;;;5071077;28;20229;-42
2021/05/18 14:15:11;;;;;;;3.70;1.77;;;23.60;41.30;;;;;;5072427;28;20202;-46
2021/05/18 14:17:37;;;;;;;2.47;1.50;;;23.60;40.60;;;;;;5072304;28;20762;-41
2021/05/18 14:20:02;;;;;;;3.50;1.65;;;23.60;40.50;;;;;;5071906;28;20201;-41
2021/05/18 14:22:28;;;;;;;3.55;1.70;;;23.60;40.60;;;;;;5065441;28;20591;-48
2021/05/18 14:25:04;;;;;;;3.75;1.95;;;23.60;40.50;;;;;;5065769;28;20201;-41
2021/05/18 14:27:30;;;;;;;3.25;1.90;;;23.60;40.60;;;;;;5053218;28;20232;-49
2021/05/18 14:29:56;;;;;;;2.88;1.73;;;23.60;40.60;;;;;;5064867;28;20196;-39
2021/05/18 14:32:22;;;;;;;6.20;2.13;;;23.70;40.70;;;;;;5071736;28;20217;-45
2021/05/18 14:34:48;;;;;;;3.25;1.60;;;23.70;40.70;;;;;;5072438;28;20227;-48
2021/05/18 14:37:14;;;;;;;2.85;1.65;;;23.60;40.60;;;;;;5071774;28;20200;-45
2021/05/18 14:39:51;;;;;;;2.40;1.40;;;23.60;40.60;;;;;;5072373;28;20609;-39
2021/05/18 14:45:01;;;;;;;2.20;1.40;;;23.60;40.60;;;;;;5065469;28;20691;-47
2021/05/18 14:47:31;;;;;;;2.45;1.73;;;23.60;40.80;;;;;;5068347;28;20209;-43
2021/05/18 14:55:25;;;;;;;3.30;1.75;;;23.60;40.70;;;;;;5072136;28;20254;-49
2021/05/18 14:57:51;;;;;;;3.20;1.65;;;23.60;40.70;;;;;;5069774;28;20671;-41
2021/05/18 15:00:17;;;;;;;4.20;1.60;;;23.70;41.00;;;;;;5069115;28;20201;-44
2021/05/18 15:02:43;;;;;;;4.20;1.70;;;23.70;41.50;;;;;;5052864;28;20225;-45
2021/05/18 15:05:09;;;;;;;3.28;1.50;;;23.70;41.20;;;;;;5070235;28;20205;-46
2021/05/18 15:07:35;;;;;;;1.92;1.48;;;23.80;41.20;;;;;;5072281;28;20209;-46
2021/05/18 15:10:01;;;;;;;2.67;1.77;;;23.70;41.00;;;;;;5070496;28;20201;-42
2021/05/18 15:12:27;;;;;;;3.47;1.70;;;23.70;41.50;;;;;;5069379;28;20301;-45
2021/05/18 15:14:53;;;;;;;4.40;1.70;;;23.70;41.20;;;;;;5063776;28;20491;-49
2021/05/18 15:17:19;;;;;;;2.70;1.60;;;23.80;41.60;;;;;;5068832;28;20311;-45
2021/05/18 15:19:47;;;;;;;3.13;1.67;;;23.90;41.20;;;;;;5068204;28;20684;-42
2021/05/18 15:22:13;;;;;;;3.25;1.45;;;23.80;40.50;;;;;;5067891;28;20244;-44
2021/05/18 15:24:39;;;;;;;2.88;1.30;;;23.80;40.30;;;;;;5069204;28;20645;-42
2021/05/18 15:27:05;;;;;;;1.52;1.23;;;23.80;40.20;;;;;;5070902;28;20201;-45
2021/05/18 15:29:31;;;;;;;2.85;1.75;;;23.80;40.10;;;;;;5068321;28;20240;-45
2021/05/18 15:31:59;;;;;;;2.58;1.30;;;23.80;40.00;;;;;;5071111;28;20755;-44
2021/05/18 15:34:25;;;;;;;2.15;1.35;;;23.90;40.20;;;;;;5070541;28;20203;-46
2021/05/18 15:36:51;;;;;;;3.20;1.30;;;23.80;40.00;;;;;;5069715;28;20229;-54
2021/05/18 15:39:17;;;;;;;3.53;1.33;;;23.80;40.20;;;;;;5070942;28;20619;-49
2021/05/18 15:41:43;;;;;;;2.97;1.25;;;23.90;40.00;;;;;;5064267;28;20252;-40
2021/05/18 15:44:08;;;;;;;1.30;1.20;;;23.90;39.80;;;;;;5068189;22;20241;-46
2021/05/18 15:46:34;;;;;;;3.85;1.40;;;23.90;39.60;;;;;;5048201;28;20268;-45
2021/05/18 15:49:00;;;;;;;1.83;1.25;;;23.90;39.60;;;;;;5048229;28;20300;-47
2021/05/18 15:51:26;;;;;;;3.20;1.30;;;23.90;39.50;;;;;;5049294;28;20369;-50
2021/05/18 15:53:52;;;;;;;1.27;1.02;;;23.90;39.60;;;;;;5066502;28;20821;-42
2021/05/18 15:56:18;;;;;;;1.58;1.27;;;23.90;39.40;;;;;;5065065;28;20806;-43
2021/05/18 15:58:44;;;;;;;3.90;1.40;;;23.90;39.30;;;;;;5067522;28;20259;-46
2021/05/18 16:01:11;;;;;;;2.10;1.40;;;23.90;39.30;;;;;;5070986;28;20266;-42
2021/05/18 16:03:37;;;;;;;2.08;1.30;;;23.90;39.20;;;;;;5067735;28;20575;-43
2021/05/18 16:06:03;;;;;;;2.95;1.35;;;23.90;39.30;;;;;;5067934;28;20201;-44
2021/05/18 16:11:13;;;;;;;3.38;1.70;;;23.90;39.50;;;;;;5063203;28;20216;-43
2021/05/18 16:13:39;;;;;;;1.70;1.30;;;23.90;39.00;;;;;;5065560;28;20622;-41
2021/05/18 16:16:05;;;;;;;1.10;1.00;;;23.90;38.60;;;;;;5064521;28;20201;-43
2021/05/18 16:18:31;;;;;;;1.08;0.98;;;23.90;38.40;;;;;;5068241;28;20232;-44
2021/05/18 16:20:57;;;;;;;2.05;1.02;;;23.90;38.40;;;;;;5066702;28;20224;-46
2021/05/18 16:23:23;;;;;;;3.20;1.30;;;23.90;38.10;;;;;;5068409;28;20629;-50
2021/05/18 16:25:49;;;;;;;1.70;1.15;;;23.90;38.00;;;;;;5067468;28;20266;-44
2021/05/18 16:28:15;;;;;;;1.42;1.33;;;23.90;38.00;;;;;;5067845;28;20201;-50
2021/05/18 16:30:41;;;;;;;1.30;1.00;;;24.00;38.10;;;;;;5066008;28;20225;-45
2021/05/18 16:33:07;;;;;;;1.45;1.00;;;24.00;38.30;;;;;;5068317;28;20198;-50
2021/05/18 16:35:33;;;;;;;3.53;1.33;;;23.90;38.50;;;;;;5065251;28;20217;-42
2021/05/18 16:37:59;;;;;;;1.77;1.20;;;23.90;38.50;;;;;;5069860;28;20232;-44
2021/05/18 16:40:25;;;;;;;2.03;1.15;;;23.90;38.40;;;;;;5068092;28;20215;-50
2021/05/18 16:42:51;;;;;;;5.03;1.10;;;23.90;38.60;;;;;;5064621;28;20682;-47
2021/05/18 16:45:17;;;;;;;1.17;1.08;;;23.90;38.50;;;;;;5069061;28;20201;-46
2021/05/18 16:47:43;;;;;;;1.67;1.20;;;23.90;38.30;;;;;;5064888;28;20204;-44
2021/05/18 16:50:09;;;;;;;1.33;0.90;;;23.90;38.60;;;;;;5067523;28;20231;-50
2021/05/18 16:52:35;;;;;;;3.10;0.80;;;23.90;38.50;;;;;;5067126;28;20252;-51
2021/05/18 16:55:01;;;;;;;0.80;0.80;;;23.80;38.40;;;;;;5066988;28;20197;-44
2021/05/18 16:57:27;;;;;;;1.00;0.90;;;23.80;38.30;;;;;;5066592;28;20294;-45
2021/05/18 16:59:53;;;;;;;1.00;0.90;;;23.80;38.40;;;;;;5066851;28;20961;-45
2021/05/18 17:02:19;;;;;;;1.42;1.05;;;23.80;38.10;;;;;;5064748;28;20243;-43
2021/05/18 17:04:45;;;;;;;0.90;0.90;;;23.80;37.90;;;;;;5063063;28;20233;-52